Data for 02/15/2005

Time Sea-Level Adjusted Pressure Absolute Pressure Temperature Relative Humidity Dew Point   
(mb) (inHg) (mb) (inHg) (C) (F) (%) (C) (F)
00:05 1017 30.03 847 25.01 -7 19.4 60 -13.5 7.7
00:10 1017 30.03 847 25.01 -7 19.5 61 -13.4 7.9
00:15 1018 30.06 847 25.01 -7 19.5 60 -13.6 7.6
00:20 1018 30.06 847 25.01 -6.9 19.5 60 -13.5 7.6
00:25 1018 30.06 847 25.01 -7 19.4 60 -13.5 7.8
00:30 1018 30.06 847 25.01 -7.2 19.1 61 -13.5 7.7
00:35 1018 30.06 847 25.01 -7.3 18.9 61 -13.6 7.6
00:40 1018 30.06 847 25.01 -7.4 18.6 61 -13.7 7.3
00:45 1018 30.06 847 25.01 -7.5 18.5 61 -13.8 7.1
00:50 1018 30.06 847 25.01 -7.6 18.3 60 -14.1 6.7
00:55 1018 30.06 847 25.01 -7.6 18.3 60 -14.1 6.7
01:00 1018 30.06 847 25.01 -7.7 18.1 60 -14.2 6.5
01:05 1018 30.06 847 25.01 -7.9 17.7 60 -14.3 6.2
01:10 1018 30.06 847 25.01 -8.5 16.8 62 -14.4 6
01:15 1018 30.06 847 25.01 -8.5 16.6 62 -14.6 5.7
01:20 1018 30.06 847 25.01 -8.5 16.7 62 -14.6 5.7
01:25 1018 30.06 847 25.01 -8.4 16.8 61 -14.7 5.5
01:30 1018 30.06 847 25.01 -8.4 16.8 61 -14.8 5.4
01:35 1018 30.06 847 25.01 -8.6 16.5 60 -15.1 4.8
01:40 1018 30.06 847 25.01 -8.8 16.1 60 -15.3 4.5
01:45 1018 30.06 847 25.01 -9.1 15.6 60 -15.4 4.2
01:50 1018 30.06 847 25.01 -9.4 15 61 -15.6 3.9
01:55 1018 30.06 847 25.01 -9.6 14.8 61 -15.7 3.8
02:00 1018 30.06 847 25.01 -9.5 14.8 61 -15.7 3.7
02:05 1018 30.06 847 25.01 -9.4 15.1 60 -15.7 3.7
02:10 1018 30.06 847 25.01 -9.4 15 60 -15.8 3.6
02:15 1018 30.06 847 25.01 -9.5 14.9 60 -15.9 3.4
02:20 1018 30.06 847 25.01 -9.4 15 62 -15.5 4.1
02:25 1018 30.06 847 25.01 -9.6 14.8 63 -15.3 4.5
02:30 1018 30.06 847 25.01 -9.6 14.8 63 -15.3 4.5
02:35 1018 30.06 847 25.01 -9.5 14.9 61 -15.6 3.9
02:40 1018 30.06 847 25.01 -9.4 15 59 -15.9 3.3
02:45 1018 30.06 847 25.01 -9.4 15 60 -15.8 3.6
02:50 1018 30.06 847 25.01 -9.5 15 60 -15.9 3.3
02:55 1018 30.06 847 25.01 -9.2 15.5 60 -15.6 4
03:00 1018 30.06 847 25.01 -9.1 15.6 60 -15.6 3.9
03:05 1018 30.06 847 25.01 -9.3 15.4 61 -15.5 4.1
03:10 1018 30.06 847 25.01 -9.4 15 60 -15.9 3.4
03:15 1018 30.06 847 25.01 -10 13.9 61 -16.3 2.7
03:20 1018 30.06 847 25.01 -10.2 13.7 61 -16.4 2.4
03:25 1018 30.06 847 25.01 -9.8 14.3 60 -16.2 2.9
03:30 1018 30.06 847 25.01 -9.5 14.9 60 -15.8 3.6
03:35 1018 30.06 847 25.01 -9.4 15.2 61 -15.5 4.1
03:40 1018 30.06 848 25.04 -9.4 15.1 61 -15.6 4
03:45 1018 30.06 848 25.04 -9.5 14.8 61 -15.7 3.8
03:50 1018 30.06 848 25.04 -9.6 14.7 61 -15.8 3.6
03:55 1018 30.06 848 25.04 -9.7 14.5 61 -15.8 3.5
04:00 1018 30.06 848 25.04 -9.8 14.4 61 -16 3.2
04:05 1018 30.06 848 25.04 -9.8 14.5 61 -15.9 3.4
04:10 1018 30.06 848 25.04 -9.8 14.4 61 -15.9 3.3
04:15 1019 30.09 848 25.04 -9.9 14.2 62 -16 3.3
04:20 1019 30.09 848 25.04 -9.9 14.3 61 -16 3.2
04:25 1019 30.09 848 25.04 -9.5 14.9 60 -15.8 3.5
04:30 1019 30.09 848 25.04 -9.4 15.1 60 -15.8 3.6
04:35 1019 30.09 848 25.04 -9.4 15.2 59 -15.9 3.3
04:40 1019 30.09 848 25.04 -9.3 15.3 57 -16.3 2.7
04:45 1019 30.09 848 25.04 -9.3 15.3 56 -16.5 2.3
04:50 1019 30.09 848 25.04 -9.4 15.1 57 -16.5 2.3
04:55 1019 30.09 848 25.04 -9.4 15.2 57 -16.5 2.4
05:00 1019 30.09 848 25.04 -9.4 15.1 58 -16.2 2.9
05:05 1019 30.09 848 25.04 -9.4 15.1 59 -15.9 3.3
05:10 1019 30.09 848 25.04 -9.3 15.3 60 -15.8 3.6
05:15 1019 30.09 848 25.04 -9.3 15.4 60 -15.6 3.8
05:20 1019 30.09 848 25.04 -9.1 15.7 59 -15.7 3.7
05:25 1019 30.09 848 25.04 -8.9 16 59 -15.5 4.1
05:30 1019 30.09 849 25.07 -8.9 16 58 -15.7 3.8
05:35 1019 30.09 849 25.07 -8.9 16 58 -15.7 3.8
05:40 1019 30.09 849 25.07 -9 15.9 58 -15.8 3.6
05:45 1019 30.09 849 25.07 -9 15.8 57 -16.1 3
05:50 1019 30.09 849 25.07 -9.1 15.5 56 -16.3 2.6
05:55 1020 30.12 849 25.07 -9.4 15.1 57 -16.5 2.3
06:00 1020 30.12 849 25.07 -9.4 15.1 55 -16.9 1.7
06:05 1020 30.12 849 25.07 -9.4 15.1 55 -16.8 1.7
06:10 1020 30.12 849 25.07 -9.3 15.3 55 -16.7 1.9
06:15 1020 30.12 849 25.07 -9.2 15.5 55 -16.7 2
06:20 1020 30.12 849 25.07 -9.2 15.5 54 -16.8 1.8
06:25 1020 30.12 849 25.07 -9.2 15.5 54 -16.9 1.6
06:30 1020 30.12 849 25.07 -9.1 15.6 54 -16.8 1.7
06:35 1020 30.12 849 25.07 -9 15.9 53 -16.8 1.7
06:40 1020 30.12 849 25.07 -8.9 16 54 -16.6 2.1
06:45 1020 30.12 849 25.07 -9 15.8 54 -16.8 1.8
06:50 1020 30.12 849 25.07 -8.9 16 55 -16.5 2.3
06:55 1020 30.12 849 25.07 -8.9 16.1 55 -16.3 2.7
07:00 1020 30.12 849 25.07 -8.9 15.9 56 -16.2 2.8
07:05 1020 30.12 849 25.07 -9.1 15.7 56 -16.4 2.5
07:10 1020 30.12 849 25.07 -9.2 15.5 57 -16.1 3
07:15 1020 30.12 850 25.1 -9.1 15.6 57 -16.1 3.1
07:20 1020 30.12 850 25.1 -9.1 15.7 58 -16 3.3
07:25 1020 30.12 850 25.1 -9.1 15.6 58 -16 3.2
07:30 1020 30.12 850 25.1 -9.1 15.5 58 -15.9 3.4
07:35 1020 30.12 850 25.1 -9.1 15.7 57 -16.1 3.1
07:40 1021 30.15 850 25.1 -9 15.7 57 -16 3.2
07:45 1021 30.15 850 25.1 -9 15.8 56 -16.3 2.7
07:50 1021 30.15 850 25.1 -9 15.9 56 -16.3 2.7
07:55 1021 30.15 850 25.1 -9 15.9 56 -16.3 2.7
08:00 1021 30.15 850 25.1 -8.9 15.9 54 -16.5 2.2
08:05 1021 30.15 850 25.1 -9 15.8 55 -16.5 2.3
08:10 1021 30.15 850 25.1 -9.1 15.5 55 -16.6 2.2
08:15 1021 30.15 851 25.13 -9.3 15.2 56 -16.5 2.2
08:20 1021 30.15 851 25.13 -9.5 15 57 -16.6 2.2
08:25 1021 30.15 851 25.13 -9.4 15.1 56 -16.7 2
08:30 1022 30.18 851 25.13 -9.3 15.2 55 -16.8 1.8
08:35 1022 30.18 851 25.13 -9.2 15.5 55 -16.6 2.1
08:40 1022 30.18 851 25.13 -8.9 16 54 -16.6 2.1
08:45 1022 30.18 851 25.13 -8.6 16.5 55 -16.2 2.9
08:50 1022 30.18 851 25.13 -8.5 16.7 54 -16.2 2.9
08:55 1022 30.18 851 25.13 -8.6 16.5 55 -16.2 2.9
09:00 1022 30.18 851 25.13 -8.7 16.3 55 -16.2 2.9
09:05 1022 30.18 851 25.13 -8.6 16.5 55 -16.1 3
09:10 1022 30.18 851 25.13 -8.4 16.9 53 -16.4 2.5
09:15 1022 30.18 851 25.13 -8 17.7 52 -16.1 3
09:20 1022 30.18 851 25.13 -7.9 17.7 52 -16.1 3.1
09:25 1022 30.18 851 25.13 -8.2 17.3 54 -15.9 3.3
09:30 1022 30.18 851 25.13 -8.2 17.3 53 -16.1 3.1
09:35 1022 30.18 851 25.13 -7.9 17.8 52 -16.2 2.9
09:40 1022 30.18 851 25.13 -7.5 18.4 52 -15.9 3.4
09:45 1022 30.18 851 25.13 -7.2 19 51 -15.7 3.8
09:50 1022 30.18 851 25.13 -6.9 19.6 51 -15.4 4.2
09:55 1022 30.18 851 25.13 -6.8 19.7 51 -15.4 4.2
10:00 1022 30.18 851 25.13 -6.8 19.7 51 -15.4 4.3
10:05 1022 30.18 851 25.13 -6.7 20 49 -15.8 3.6
10:10 1022 30.18 851 25.13 -6.1 21 48 -15.6 4
10:15 1022 30.18 851 25.13 -5.9 21.4 46 -15.7 3.8
10:20 1022 30.18 851 25.13 -6 21.3 45 -16.2 2.8
10:25 1022 30.18 851 25.13 -5.6 21.9 43 -16.3 2.7
10:30 1022 30.18 851 25.13 -5.4 22.4 43 -16.2 2.8
10:35 1022 30.18 851 25.13 -4.9 23.1 41 -16.2 2.8
10:40 1022 30.18 851 25.13 -4.5 23.8 42 -15.6 3.8
10:45 1022 30.18 851 25.13 -4 24.8 40 -15.7 3.8
10:50 1022 30.18 851 25.13 -3.4 25.9 40 -15.3 4.5
10:55 1022 30.18 852 25.16 -3.2 26.2 39 -15.3 4.4
11:00 1022 30.18 852 25.16 -3.8 25.2 41 -15.1 4.8
11:05 1022 30.18 852 25.16 -3.4 25.9 39 -15.4 4.3
11:10 1022 30.18 852 25.16 -3 26.6 39 -15.3 4.5
11:15 1022 30.18 852 25.16 -2.3 27.8 39 -14.5 5.9
11:20 1022 30.18 852 25.16 -1.6 29.1 34 -15.6 3.8
11:25 1022 30.18 852 25.16 -1.6 29.1 34 -15.7 3.7
11:30 1022 30.18 852 25.16 -2 28.4 33 -16.2 2.8
11:35 1022 30.18 852 25.16 -2 28.5 34 -15.9 3.4
11:40 1022 30.18 852 25.16 -1.7 28.9 32 -16.4 2.5
11:45 1022 30.18 852 25.16 -1 30.1 32 -15.8 3.6
11:50 1022 30.18 852 25.16 -1 30.1 32 -15.6 3.9
11:55 1022 30.18 851 25.13 -0.9 30.4 31 -15.9 3.5
12:00 1022 30.18 851 25.13 -1.3 29.6 32 -15.9 3.3
12:05 1022 30.18 851 25.13 -1.2 29.9 33 -15.6 4
12:10 1022 30.18 851 25.13 -0.9 30.3 32 -15.7 3.7
12:15 1022 30.18 851 25.13 -0.6 31 33 -15.1 4.8
12:20 1022 30.18 851 25.13 -0.4 31.2 32 -15.4 4.4
12:25 1022 30.18 851 25.13 -0.7 30.8 31 -15.9 3.3
12:30 1022 30.18 851 25.13 -0.6 30.9 31 -15.9 3.4
12:35 1022 30.18 851 25.13 -0.8 30.6 32 -15.4 4.3
12:40 1022 30.18 851 25.13 -0.5 31.1 31 -15.5 4
12:45 1022 30.18 851 25.13 -0.2 31.7 29 -16.3 2.7
12:50 1022 30.18 851 25.13 -0.7 30.8 32 -15.5 4
12:55 1022 30.18 851 25.13 -0.2 31.6 30 -15.7 3.7
13:00 1022 30.18 851 25.13 -0.5 31.2 30 -16.2 2.8
13:05 1022 30.18 851 25.13 -0.6 30.9 30 -16.2 2.8
13:10 1022 30.18 851 25.13 -0.4 31.3 30 -16 3.1
13:15 1022 30.18 851 25.13 -0.3 31.5 29 -16.4 2.5
13:20 1022 30.18 851 25.13 -0.5 31.1 29 -16.4 2.5
13:25 1022 30.18 851 25.13 -0.8 30.6 30 -16.2 2.9
13:30 1022 30.18 851 25.13 -0.4 31.2 30 -16.1 2.9
13:35 1022 30.18 851 25.13 -0.4 31.3 30 -16.2 2.9
13:40 1022 30.18 851 25.13 -0.4 31.3 29 -16.4 2.4
13:45 1022 30.18 851 25.13 -0.6 30.9 30 -16.3 2.6
13:50 1022 30.18 851 25.13 -0.5 31.2 30 -16 3.3
13:55 1022 30.18 851 25.13 -0.4 31.3 29 -16.2 2.8
14:00 1022 30.18 851 25.13 -0.6 31 30 -16 3.1
14:05 1021 30.15 851 25.13 -1 30.2 31 -16.3 2.7
14:10 1021 30.15 851 25.13 -1 30.2 30 -16.5 2.3
14:15 1021 30.15 851 25.13 -1.8 28.8 32 -16.5 2.2
14:20 1021 30.15 851 25.13 -1.3 29.7 32 -16.2 2.9
14:25 1021 30.15 850 25.1 -0.5 31.1 31 -15.9 3.4
14:30 1021 30.15 851 25.13 -0.3 31.4 30 -16.1 3.1
14:35 1021 30.15 851 25.13 -0.1 31.9 28 -16.5 2.3
14:40 1021 30.15 850 25.1 -1 30.3 31 -16 3.3
14:45 1021 30.15 850 25.1 -0.8 30.5 29 -16.8 1.7
14:50 1021 30.15 850 25.1 -0.4 31.3 28 -16.9 1.6
14:55 1021 30.15 850 25.1 -0.4 31.2 31 -15.6 4
15:00 1021 30.15 850 25.1 -1 30.2 30 -16.5 2.3
15:05 1021 30.15 850 25.1 -1.4 29.5 30 -16.8 1.8
15:10 1021 30.15 850 25.1 -1.4 29.5 31 -16.5 2.2
15:15 1021 30.15 850 25.1 -1.1 30 31 -16.4 2.4
15:20 1021 30.15 850 25.1 -0.9 30.4 30 -16.3 2.6
15:25 1021 30.15 850 25.1 -0.6 30.8 31 -16 3.2
15:30 1021 30.15 850 25.1 -0.3 31.4 31 -15.7 3.7
15:35 1021 30.15 850 25.1 0.1 32.2 28 -16.2 2.8
15:40 1021 30.15 850 25.1 0.5 32.9 28 -15.9 3.3
15:45 1021 30.15 850 25.1 0.7 33.3 27 -16.2 2.9
15:50 1021 30.15 850 25.1 -0 32 30 -15.4 4.2
15:55 1021 30.15 850 25.1 -1.1 30 31 -16.2 2.8
16:00 1021 30.15 850 25.1 -1.9 28.6 33 -16.2 2.9
16:05 1021 30.15 850 25.1 -1.4 29.5 31 -16.4 2.6
16:10 1021 30.15 850 25.1 -0.8 30.6 32 -15.7 3.7
16:15 1021 30.15 850 25.1 -0.9 30.3 30 -16.5 2.3
16:20 1021 30.15 850 25.1 -1.3 29.7 32 -15.8 3.5
16:25 1021 30.15 850 25.1 -1.5 29.4 32 -16.2 2.8
16:30 1021 30.15 850 25.1 -1.6 29.1 32 -16.4 2.4
16:35 1021 30.15 850 25.1 -1.4 29.5 31 -16.4 2.4
16:40 1021 30.15 850 25.1 -1.3 29.6 32 -16 3.2
16:45 1021 30.15 850 25.1 -1.7 29 32 -16.5 2.4
16:50 1021 30.15 850 25.1 -1.9 28.6 33 -16.1 3
16:55 1021 30.15 850 25.1 -1.4 29.4 32 -16.2 2.8
17:00 1021 30.15 850 25.1 -1.2 29.8 31 -16.3 2.6
17:05 1021 30.15 850 25.1 -1.9 28.6 32 -16.6 2.1
17:10 1021 30.15 850 25.1 -1.9 28.7 32 -16.5 2.3
17:15 1021 30.15 850 25.1 -1.9 28.6 32 -16.6 2.2
17:20 1021 30.15 850 25.1 -2.3 27.9 34 -16 3.2
17:25 1021 30.15 850 25.1 -2.4 27.6 35 -16 3.2
17:30 1021 30.15 850 25.1 -2.4 27.7 36 -15.7 3.7
17:35 1021 30.15 850 25.1 -2.6 27.3 37 -15.3 4.5
17:40 1021 30.15 850 25.1 -2.7 27.1 38 -15.2 4.7
17:45 1021 30.15 850 25.1 -2.8 27 42 -14.1 6.6
17:50 1021 30.15 850 25.1 -3.5 25.8 47 -13.1 8.3
17:55 1021 30.15 850 25.1 -4 24.8 49 -13.3 8
18:00 1021 30.15 850 25.1 -4.6 23.7 53 -12.7 9.1
18:05 1021 30.15 850 25.1 -5.3 22.5 54 -13.1 8.4
18:10 1021 30.15 850 25.1 -5.6 22 57 -12.9 8.8
18:15 1021 30.15 850 25.1 -5.9 21.4 59 -12.7 9.2
18:20 1021 30.15 850 25.1 -6.1 21.1 60 -12.7 9.1
18:25 1021 30.15 850 25.1 -6 21.2 59 -12.8 9
18:30 1021 30.15 850 25.1 -6.1 21 59 -12.9 8.9
18:35 1021 30.15 850 25.1 -6.3 20.7 60 -12.8 9
18:40 1021 30.15 850 25.1 -6.5 20.4 60 -12.9 8.8
18:45 1021 30.15 850 25.1 -6.5 20.2 61 -12.8 8.9
18:50 1021 30.15 850 25.1 -6.9 19.6 63 -12.8 8.9
18:55 1021 30.15 850 25.1 -7.2 19 64 -13 8.7
19:00 1021 30.15 850 25.1 -7.1 19.2 63 -13 8.6
19:05 1021 30.15 850 25.1 -6.9 19.6 63 -12.9 8.8
19:10 1021 30.15 850 25.1 -7.3 18.8 64 -12.9 8.8
19:15 1021 30.15 850 25.1 -7.5 18.4 65 -13 8.6
19:20 1021 30.15 850 25.1 -7.7 18.2 66 -13.1 8.5
19:25 1021 30.15 850 25.1 -7.8 18 66 -13.1 8.4
19:30 1021 30.15 850 25.1 -7.9 17.9 66 -13.2 8.3
19:35 1021 30.15 850 25.1 -7.8 18 66 -13.1 8.4
19:40 1021 30.15 850 25.1 -7.7 18.1 65 -13.2 8.2
19:45 1021 30.15 850 25.1 -7.7 18.1 65 -13.2 8.2
19:50 1021 30.15 851 25.13 -7.6 18.2 65 -13.2 8.3
19:55 1021 30.15 851 25.13 -7.6 18.3 64 -13.3 8.1
20:00 1021 30.15 851 25.13 -7.7 18.1 65 -13.3 8.1
20:05 1021 30.15 851 25.13 -7.9 17.9 65 -13.3 8
20:10 1022 30.18 851 25.13 -7.9 17.8 65 -13.4 7.9
20:15 1022 30.18 851 25.13 -8.1 17.4 67 -13.3 8.1
20:20 1022 30.18 851 25.13 -8.3 17 67 -13.5 7.7
20:25 1022 30.18 851 25.13 -8.4 16.8 67 -13.5 7.6
20:30 1022 30.18 851 25.13 -8.3 17 66 -13.6 7.5
20:35 1022 30.18 851 25.13 -8.3 17.1 65 -13.8 7.2
20:40 1022 30.18 851 25.13 -8.2 17.2 64 -13.9 7
20:45 1022 30.18 851 25.13 -8.2 17.2 64 -13.9 6.9
20:50 1022 30.18 851 25.13 -8.2 17.3 63 -14 6.8
20:55 1022 30.18 851 25.13 -8 17.6 63 -13.9 7
21:00 1022 30.18 851 25.13 -7.9 17.9 62 -13.9 6.9
21:05 1022 30.18 851 25.13 -7.5 18.4 61 -13.9 7
21:10 1022 30.18 851 25.13 -7.7 18.2 63 -13.6 7.6
21:15 1022 30.18 851 25.13 -7.8 17.9 64 -13.5 7.8
21:20 1022 30.18 851 25.13 -7.9 17.8 64 -13.6 7.5
21:25 1022 30.18 851 25.13 -7.9 17.9 64 -13.5 7.7
21:30 1022 30.18 851 25.13 -8.2 17.2 66 -13.6 7.6
21:35 1022 30.18 851 25.13 -8.6 16.6 66 -13.8 7.2
21:40 1022 30.18 851 25.13 -8.1 17.4 62 -14.2 6.5
21:45 1022 30.18 851 25.13 -7.7 18.1 59 -14.4 6.1
21:50 1022 30.18 851 25.13 -7.8 17.9 59 -14.6 5.7
21:55 1022 30.18 851 25.13 -7.7 18.1 60 -14.3 6.3
22:00 1022 30.18 851 25.13 -8 17.6 61 -14.3 6.2
22:05 1022 30.18 851 25.13 -8.1 17.4 62 -14.2 6.4
22:10 1022 30.18 851 25.13 -8.3 17.1 62 -14.4 6
22:15 1022 30.18 851 25.13 -8.7 16.4 63 -14.4 6
22:20 1022 30.18 851 25.13 -8.6 16.6 64 -14.2 6.4
22:25 1022 30.18 851 25.13 -8.6 16.5 64 -14.3 6.2
22:30 1022 30.18 851 25.13 -8.5 16.7 63 -14.4 6
22:35 1022 30.18 851 25.13 -8.3 17.2 61 -14.4 6
22:40 1022 30.18 851 25.13 -8.1 17.5 61 -14.3 6.3
22:45 1022 30.18 851 25.13 -8.1 17.3 62 -14.3 6.3
22:50 1022 30.18 851 25.13 -8.3 17.1 62 -14.3 6.3
22:55 1022 30.18 851 25.13 -8.2 17.2 61 -14.5 5.9
23:00 1022 30.18 851 25.13 -8.7 16.4 62 -14.6 5.7
23:05 1022 30.18 851 25.13 -9 15.9 64 -14.5 5.9
23:10 1022 30.18 851 25.13 -8.9 16.1 64 -14.5 6
23:15 1022 30.18 851 25.13 -9 15.8 66 -14.3 6.3
23:20 1022 30.18 851 25.13 -9.2 15.4 67 -14.4 6.1
23:25 1022 30.18 851 25.13 -9.5 14.9 67 -14.6 5.8
23:30 1022 30.18 851 25.13 -9.8 14.3 68 -14.7 5.6
23:35 1022 30.18 851 25.13 -10 14.1 68 -14.7 5.5
23:40 1022 30.18 851 25.13 -10.3 13.5 71 -14.7 5.6
23:45 1022 30.18 851 25.13 -10.6 13 71 -14.9 5.2
23:50 1022 30.18 851 25.13 -10.3 13.4 70 -14.9 5.2
23:55 1022 30.18 851 25.13 -10.3 13.5 69 -14.8 5.3
24:00 1022 30.18 851 25.13 -10.3 13.4 70 -14.9 5.3